Time;durP1;ratioP1;P1;durP2;ratioP2;P2;SDS_P1;SDS_P2;PMS_P1;PMS_P2;Temp;Humidity;BMP_temperature;BMP_pressure;BME280_temperature;BME280_humidity;BME280_pressure;Samples;Min_cycle;Max_cycle;Signal;HPM_P1;HPM_P2
2023/03/23 00:02:27;;;;;;;5.03;4.07;;;;;;;;;;5033372;28;20051;-38
2023/03/23 00:04:53;;;;;;;9.63;4.55;;;;;;;;;;5033695;28;20025;-42
2023/03/23 00:07:27;;;;;;;7.30;4.40;;;;;;;;;;5034792;28;20098;-39
2023/03/23 00:09:53;;;;;;;5.18;4.50;;;;;;;;;;5034735;28;20030;-38
2023/03/23 00:12:32;;;;;;;7.95;4.18;;;;;;;;;;5037510;28;20048;-39
2023/03/23 00:15:01;;;;;;;7.20;4.70;;;;;;;;;;5031161;28;20041;-38
2023/03/23 00:17:28;;;;;;;7.72;4.10;;;;;;;;;;5033193;28;20585;-44
2023/03/23 00:19:53;;;;;;;6.72;3.80;;;;;;;;;;5030531;28;20037;-45
2023/03/23 00:22:20;;;;;;;5.25;3.88;;;;;;;;;;5032841;28;20036;-38
2023/03/23 00:24:46;;;;;;;6.35;4.07;;;;;;;;;;5027503;28;20034;-38
2023/03/23 00:27:14;;;;;;;9.57;4.65;;;;;;;;;;5032520;28;20033;-38
2023/03/23 00:29:41;;;;;;;6.40;4.10;;;;;;;;;;5026467;28;20492;-42
2023/03/23 00:32:12;;;;;;;8.18;4.35;;;;;;;;;;5033280;28;20042;-39
2023/03/23 00:34:40;;;;;;;11.82;4.28;;;;;;;;;;5036819;28;20068;-45
2023/03/23 00:37:06;;;;;;;6.25;4.03;;;;;;;;;;5037640;28;20030;-41
2023/03/23 00:39:31;;;;;;;8.55;4.18;;;;;;;;;;5033548;28;20077;-39
2023/03/23 00:42:00;;;;;;;5.35;3.78;;;;;;;;;;5033278;28;20037;-39
2023/03/23 00:44:31;;;;;;;5.22;3.58;;;;;;;;;;5032121;28;20056;-49
2023/03/23 00:46:57;;;;;;;7.82;3.85;;;;;;;;;;5037589;28;20120;-39
2023/03/23 00:49:25;;;;;;;4.55;4.15;;;;;;;;;;5033539;28;20032;-41
2023/03/23 00:51:52;;;;;;;4.18;3.78;;;;;;;;;;5038152;28;20037;-37
2023/03/23 00:54:17;;;;;;;5.50;3.55;;;;;;;;;;5039571;28;20071;-40
2023/03/23 00:56:43;;;;;;;8.00;3.85;;;;;;;;;;5037710;28;20490;-38
2023/03/23 00:59:09;;;;;;;9.23;4.10;;;;;;;;;;5036895;28;20018;-38
2023/03/23 01:01:35;;;;;;;5.35;4.35;;;;;;;;;;5033150;28;20032;-42
2023/03/23 01:04:03;;;;;;;4.43;3.38;;;;;;;;;;5037583;28;20036;-38
2023/03/23 01:06:39;;;;;;;5.75;3.70;;;;;;;;;;5038961;28;20044;-38
2023/03/23 01:09:20;;;;;;;5.68;3.33;;;;;;;;;;5028716;28;20049;-46
2023/03/23 01:11:47;;;;;;;6.72;3.78;;;;;;;;;;5031428;28;20033;-40
2023/03/23 01:14:15;;;;;;;4.20;3.55;;;;;;;;;;5035928;28;20045;-39
2023/03/23 01:16:40;;;;;;;5.38;3.30;;;;;;;;;;5034746;28;20042;-39
2023/03/23 01:19:06;;;;;;;3.95;3.10;;;;;;;;;;5035393;28;20032;-38
2023/03/23 01:21:31;;;;;;;4.40;3.80;;;;;;;;;;5037141;28;20083;-38
2023/03/23 01:23:57;;;;;;;4.10;3.80;;;;;;;;;;5041932;28;20474;-38
2023/03/23 01:26:25;;;;;;;4.38;3.50;;;;;;;;;;5035560;28;20068;-38
2023/03/23 01:28:50;;;;;;;5.10;3.97;;;;;;;;;;5030265;28;20118;-38
2023/03/23 01:31:19;;;;;;;5.45;4.03;;;;;;;;;;5037321;28;20072;-42
2023/03/23 01:33:45;;;;;;;6.70;3.47;;;;;;;;;;5030821;28;20033;-39
2023/03/23 01:36:14;;;;;;;4.18;3.50;;;;;;;;;;5037530;28;20046;-39
2023/03/23 01:38:41;;;;;;;4.57;3.40;;;;;;;;;;5040368;28;20035;-39
2023/03/23 01:41:07;;;;;;;3.83;3.45;;;;;;;;;;5032778;28;20155;-39
2023/03/23 01:43:32;;;;;;;3.38;3.08;;;;;;;;;;5036582;28;20056;-43
2023/03/23 01:45:58;;;;;;;3.97;3.45;;;;;;;;;;5037598;28;20076;-45
2023/03/23 01:48:29;;;;;;;3.63;3.30;;;;;;;;;;5038815;28;20519;-39
2023/03/23 01:51:16;;;;;;;3.90;3.50;;;;;;;;;;5030327;28;20402;-39
2023/03/23 01:53:51;;;;;;;4.40;3.60;;;;;;;;;;5036077;28;20134;-38
2023/03/23 01:56:20;;;;;;;5.28;3.45;;;;;;;;;;5038206;28;20045;-38
2023/03/23 01:58:46;;;;;;;6.10;3.40;;;;;;;;;;5036282;28;20453;-43
2023/03/23 02:01:14;;;;;;;5.72;3.83;;;;;;;;;;5031026;28;20080;-44
2023/03/23 02:03:43;;;;;;;5.50;3.85;;;;;;;;;;5031175;28;20391;-39
2023/03/23 02:06:09;;;;;;;7.57;3.90;;;;;;;;;;5035712;28;20038;-39
2023/03/23 02:08:36;;;;;;;6.65;4.40;;;;;;;;;;5033408;28;20029;-40
2023/03/23 02:11:11;;;;;;;6.60;4.30;;;;;;;;;;5034720;28;20135;-38
2023/03/23 02:13:37;;;;;;;8.32;4.57;;;;;;;;;;5035048;28;20028;-44
2023/03/23 02:16:31;;;;;;;6.00;4.70;;;;;;;;;;5038553;28;20123;-42
2023/03/23 02:19:15;;;;;;;7.28;4.65;;;;;;;;;;5035407;28;20046;-38
2023/03/23 02:22:00;;;;;;;5.72;4.95;;;;;;;;;;5029693;28;20875;-38
2023/03/23 02:24:42;;;;;;;5.75;4.72;;;;;;;;;;5038798;28;20033;-39
2023/03/23 02:27:42;;;;;;;5.93;4.60;;;;;;;;;;5035150;28;20132;-40
2023/03/23 02:30:27;;;;;;;7.47;4.50;;;;;;;;;;5033890;28;20032;-38
2023/03/23 02:33:24;;;;;;;15.02;4.43;;;;;;;;;;5032842;28;20087;-39
2023/03/23 02:36:07;;;;;;;8.35;4.95;;;;;;;;;;5030385;28;20050;-38
2023/03/23 02:38:38;;;;;;;9.82;4.80;;;;;;;;;;5035518;28;20017;-38
2023/03/23 02:41:04;;;;;;;13.90;5.20;;;;;;;;;;5030323;28;20033;-40
2023/03/23 02:43:36;;;;;;;5.68;4.60;;;;;;;;;;5034939;28;20036;-42
2023/03/23 02:46:06;;;;;;;10.43;5.00;;;;;;;;;;5032667;28;20060;-38
2023/03/23 02:48:33;;;;;;;5.57;4.45;;;;;;;;;;5038570;28;20664;-38
2023/03/23 02:51:00;;;;;;;10.85;5.13;;;;;;;;;;5031964;28;20120;-39
2023/03/23 02:53:28;;;;;;;9.30;5.35;;;;;;;;;;5035507;28;20036;-39
2023/03/23 02:55:56;;;;;;;7.75;5.25;;;;;;;;;;5029540;28;20034;-41
2023/03/23 02:58:21;;;;;;;11.10;5.38;;;;;;;;;;5033440;28;20040;-38
2023/03/23 03:00:50;;;;;;;5.82;4.97;;;;;;;;;;5028192;28;20452;-39
2023/03/23 03:03:23;;;;;;;6.45;5.18;;;;;;;;;;5034742;28;20028;-39
2023/03/23 03:06:22;;;;;;;9.57;5.03;;;;;;;;;;5030361;28;20033;-43
2023/03/23 03:09:06;;;;;;;10.40;5.50;;;;;;;;;;5037600;28;20397;-38
2023/03/23 03:11:34;;;;;;;9.32;5.45;;;;;;;;;;5030113;28;20698;-41
2023/03/23 03:14:17;;;;;;;7.22;5.13;;;;;;;;;;5030542;28;20112;-38
2023/03/23 03:17:00;;;;;;;5.55;4.93;;;;;;;;;;5041296;28;20048;-39
2023/03/23 03:19:31;;;;;;;10.45;5.70;;;;;;;;;;5031805;28;20548;-38
2023/03/23 03:21:58;;;;;;;7.40;5.35;;;;;;;;;;5034142;28;20490;-39
2023/03/23 03:24:26;;;;;;;7.53;5.68;;;;;;;;;;5031190;28;20436;-38
2023/03/23 03:26:57;;;;;;;9.15;5.70;;;;;;;;;;5035623;28;20091;-40
2023/03/23 03:29:30;;;;;;;7.70;6.05;;;;;;;;;;5033234;28;20038;-41
2023/03/23 03:31:58;;;;;;;13.45;6.20;;;;;;;;;;5031636;28;20167;-38
2023/03/23 03:34:24;;;;;;;8.52;5.93;;;;;;;;;;5033486;28;20020;-38
2023/03/23 03:36:51;;;;;;;13.48;6.03;;;;;;;;;;5033637;28;20101;-38
2023/03/23 03:39:20;;;;;;;9.73;6.35;;;;;;;;;;5030983;28;20025;-39
2023/03/23 03:41:45;;;;;;;9.05;6.93;;;;;;;;;;5037373;28;20501;-38
2023/03/23 03:44:11;;;;;;;10.52;6.93;;;;;;;;;;5030929;28;20067;-41
2023/03/23 03:46:37;;;;;;;10.73;6.50;;;;;;;;;;5033428;28;20040;-39
2023/03/23 03:49:05;;;;;;;9.48;6.45;;;;;;;;;;5032009;28;20111;-41
2023/03/23 03:51:31;;;;;;;8.05;6.18;;;;;;;;;;5033515;28;20041;-38
2023/03/23 03:53:57;;;;;;;7.10;5.60;;;;;;;;;;5036066;28;20807;-40
2023/03/23 03:56:23;;;;;;;10.65;5.72;;;;;;;;;;5036135;28;20056;-38
2023/03/23 03:58:50;;;;;;;11.55;5.85;;;;;;;;;;5034515;28;20025;-38
2023/03/23 04:01:17;;;;;;;10.90;6.18;;;;;;;;;;5028510;28;20041;-39
2023/03/23 04:03:43;;;;;;;7.00;5.32;;;;;;;;;;5031550;28;20078;-39
2023/03/23 04:06:09;;;;;;;8.43;6.22;;;;;;;;;;5031501;28;20053;-43
2023/03/23 04:08:37;;;;;;;7.95;5.88;;;;;;;;;;5037224;28;20470;-38
2023/03/23 04:11:04;;;;;;;7.38;6.03;;;;;;;;;;5030539;28;20087;-38
2023/03/23 04:13:29;;;;;;;10.45;6.05;;;;;;;;;;5034530;28;20167;-39
2023/03/23 04:15:55;;;;;;;7.13;6.20;;;;;;;;;;5035683;28;20120;-38
2023/03/23 04:18:21;;;;;;;9.82;5.88;;;;;;;;;;5031058;28;20455;-41
2023/03/23 04:20:48;;;;;;;8.48;6.10;;;;;;;;;;5032857;28;20132;-39
2023/03/23 04:23:21;;;;;;;6.78;6.00;;;;;;;;;;5029836;28;20044;-38
2023/03/23 04:25:48;;;;;;;8.70;6.47;;;;;;;;;;5032821;28;20406;-39
2023/03/23 04:28:16;;;;;;;12.35;6.35;;;;;;;;;;5033762;28;20037;-41
2023/03/23 04:30:42;;;;;;;10.23;6.00;;;;;;;;;;5030391;28;20620;-41
2023/03/23 04:33:14;;;;;;;8.88;5.28;;;;;;;;;;5030431;28;20030;-44
2023/03/23 04:35:41;;;;;;;10.45;6.00;;;;;;;;;;5036758;28;20047;-39
2023/03/23 04:38:07;;;;;;;6.13;5.43;;;;;;;;;;5029767;28;20029;-39
2023/03/23 04:40:36;;;;;;;7.18;5.78;;;;;;;;;;5033412;28;20494;-38
2023/03/23 04:43:05;;;;;;;8.50;5.70;;;;;;;;;;5033216;28;20436;-38
2023/03/23 04:45:31;;;;;;;8.70;5.25;;;;;;;;;;5029553;28;20034;-42
2023/03/23 04:48:01;;;;;;;7.03;5.63;;;;;;;;;;5034431;28;20047;-41
2023/03/23 04:50:30;;;;;;;7.93;5.53;;;;;;;;;;5030227;28;20525;-41
2023/03/23 04:52:57;;;;;;;14.00;5.75;;;;;;;;;;5032761;28;20029;-39
2023/03/23 04:55:24;;;;;;;10.00;5.63;;;;;;;;;;5034249;28;20048;-38
2023/03/23 04:57:50;;;;;;;9.77;5.30;;;;;;;;;;5033149;28;20048;-38
2023/03/23 05:00:16;;;;;;;7.43;5.45;;;;;;;;;;5033993;28;20057;-39
2023/03/23 05:02:51;;;;;;;7.00;4.90;;;;;;;;;;5032750;28;20028;-38
2023/03/23 05:05:19;;;;;;;6.90;5.00;;;;;;;;;;5027712;28;20056;-43
2023/03/23 05:07:45;;;;;;;7.55;4.90;;;;;;;;;;5024672;28;20029;-41
2023/03/23 05:10:11;;;;;;;9.00;5.38;;;;;;;;;;5032843;28;20039;-45
2023/03/23 05:12:38;;;;;;;4.95;4.47;;;;;;;;;;5034463;28;20029;-41
2023/03/23 05:15:04;;;;;;;5.10;4.30;;;;;;;;;;5032131;28;20025;-41
2023/03/23 05:17:32;;;;;;;10.82;4.68;;;;;;;;;;5028328;28;20120;-38
2023/03/23 05:19:58;;;;;;;6.90;4.45;;;;;;;;;;5030327;28;20494;-42
2023/03/23 05:22:26;;;;;;;5.82;4.45;;;;;;;;;;5033923;28;20103;-39
2023/03/23 05:24:51;;;;;;;6.47;4.90;;;;;;;;;;5033889;28;20041;-41
2023/03/23 05:27:18;;;;;;;7.35;4.70;;;;;;;;;;5040125;28;20048;-41
2023/03/23 05:29:45;;;;;;;6.22;4.60;;;;;;;;;;5028437;28;20041;-43
2023/03/23 05:32:11;;;;;;;6.25;4.60;;;;;;;;;;5036907;28;20057;-38
2023/03/23 05:34:36;;;;;;;8.43;4.30;;;;;;;;;;5033319;28;20025;-41
2023/03/23 05:37:03;;;;;;;6.90;4.25;;;;;;;;;;5021252;28;20529;-45
2023/03/23 05:39:31;;;;;;;8.35;4.28;;;;;;;;;;5036664;28;20035;-39
2023/03/23 05:41:56;;;;;;;5.60;4.85;;;;;;;;;;5035431;28;20033;-41
2023/03/23 05:44:22;;;;;;;5.85;4.65;;;;;;;;;;5027288;28;20371;-38
2023/03/23 05:46:48;;;;;;;5.60;4.53;;;;;;;;;;5036251;28;20056;-42
2023/03/23 05:49:16;;;;;;;8.65;4.68;;;;;;;;;;5037101;28;20118;-38
2023/03/23 05:51:42;;;;;;;6.32;5.18;;;;;;;;;;5036252;28;20068;-41
2023/03/23 05:54:07;;;;;;;7.18;5.43;;;;;;;;;;5033940;28;20123;-41
2023/03/23 05:56:32;;;;;;;8.40;5.18;;;;;;;;;;5036247;28;20069;-39
2023/03/23 05:58:58;;;;;;;17.50;5.93;;;;;;;;;;5039662;28;20123;-38
2023/03/23 06:01:24;;;;;;;13.93;5.55;;;;;;;;;;5030467;28;20044;-39
2023/03/23 06:03:53;;;;;;;6.85;5.07;;;;;;;;;;5026310;28;20022;-40
2023/03/23 06:06:22;;;;;;;6.63;5.97;;;;;;;;;;5032415;28;20057;-38
2023/03/23 06:08:50;;;;;;;9.90;5.90;;;;;;;;;;5030051;28;20039;-38
2023/03/23 06:11:15;;;;;;;8.98;6.53;;;;;;;;;;5031497;28;20061;-46
2023/03/23 06:13:41;;;;;;;7.45;6.15;;;;;;;;;;5038909;28;20056;-39
2023/03/23 06:16:08;;;;;;;7.93;6.28;;;;;;;;;;5033735;28;20046;-38
2023/03/23 06:18:36;;;;;;;11.13;6.78;;;;;;;;;;5034465;28;20045;-43
2023/03/23 06:21:02;;;;;;;12.15;7.20;;;;;;;;;;5028669;28;20148;-39
2023/03/23 06:23:28;;;;;;;16.33;8.60;;;;;;;;;;5031227;28;20083;-38
2023/03/23 06:25:57;;;;;;;10.57;7.55;;;;;;;;;;5031969;28;20053;-38
2023/03/23 06:28:22;;;;;;;7.90;6.40;;;;;;;;;;5037370;28;20024;-39
2023/03/23 06:30:48;;;;;;;13.32;7.22;;;;;;;;;;5033111;28;20526;-39
2023/03/23 06:33:13;;;;;;;8.05;6.15;;;;;;;;;;5022007;28;20033;-38
2023/03/23 06:35:39;;;;;;;13.10;10.35;;;;;;;;;;5035209;28;20064;-39
2023/03/23 06:38:04;;;;;;;15.30;11.43;;;;;;;;;;5029103;28;20405;-39
2023/03/23 06:40:30;;;;;;;12.50;8.23;;;;;;;;;;5025188;28;20129;-38
2023/03/23 06:43:01;;;;;;;10.45;7.22;;;;;;;;;;5024108;28;20036;-38
2023/03/23 06:45:26;;;;;;;10.15;6.70;;;;;;;;;;5035375;28;20041;-39
2023/03/23 06:47:52;;;;;;;10.02;5.90;;;;;;;;;;5031891;28;20463;-39
2023/03/23 06:50:17;;;;;;;5.43;4.88;;;;;;;;;;5025883;28;20048;-38
2023/03/23 06:52:47;;;;;;;8.95;4.85;;;;;;;;;;5021456;28;20663;-38
2023/03/23 06:55:13;;;;;;;7.38;4.63;;;;;;;;;;5027424;28;20060;-38
2023/03/23 06:57:40;;;;;;;10.00;4.88;;;;;;;;;;5026619;28;20021;-39
2023/03/23 07:00:07;;;;;;;9.98;5.15;;;;;;;;;;5027037;28;20104;-39
2023/03/23 07:02:34;;;;;;;6.65;4.90;;;;;;;;;;5028678;28;20481;-38
2023/03/23 07:04:59;;;;;;;6.95;4.60;;;;;;;;;;5025518;28;20025;-38
2023/03/23 07:07:25;;;;;;;8.90;5.43;;;;;;;;;;5022349;28;20075;-39
2023/03/23 07:09:50;;;;;;;9.40;4.65;;;;;;;;;;5034266;28;20048;-42
2023/03/23 07:12:16;;;;;;;10.25;5.28;;;;;;;;;;5035658;28;20057;-39
2023/03/23 07:14:41;;;;;;;11.40;5.80;;;;;;;;;;5029553;28;20036;-39
2023/03/23 07:17:07;;;;;;;16.45;6.45;;;;;;;;;;5019430;28;20444;-39
2023/03/23 07:19:33;;;;;;;8.98;5.72;;;;;;;;;;5021732;28;20022;-39
2023/03/23 07:21:58;;;;;;;6.85;4.95;;;;;;;;;;5033041;28;20040;-39
2023/03/23 07:24:23;;;;;;;16.48;5.50;;;;;;;;;;5037101;28;20029;-39
2023/03/23 07:26:49;;;;;;;9.27;4.90;;;;;;;;;;5031136;28;20042;-39
2023/03/23 07:29:14;;;;;;;8.10;4.53;;;;;;;;;;5032578;28;20042;-40
2023/03/23 07:31:40;;;;;;;9.88;4.10;;;;;;;;;;5033329;28;20589;-38
2023/03/23 07:34:06;;;;;;;5.85;3.75;;;;;;;;;;5027010;28;20033;-39
2023/03/23 07:36:31;;;;;;;5.28;3.90;;;;;;;;;;5038798;28;20047;-38
2023/03/23 07:38:58;;;;;;;5.72;3.90;;;;;;;;;;5033413;28;20477;-44
2023/03/23 07:41:24;;;;;;;4.45;3.63;;;;;;;;;;5026400;28;20128;-39
2023/03/23 07:43:49;;;;;;;6.30;3.47;;;;;;;;;;5033665;28;20171;-40
2023/03/23 07:46:14;;;;;;;6.60;3.83;;;;;;;;;;5035422;28;20037;-39
2023/03/23 07:48:40;;;;;;;7.32;3.67;;;;;;;;;;5032402;28;20033;-39
2023/03/23 07:51:07;;;;;;;7.13;3.47;;;;;;;;;;5031802;28;20040;-39
2023/03/23 07:53:33;;;;;;;7.03;2.97;;;;;;;;;;5030276;28;20053;-39
2023/03/23 07:55:58;;;;;;;4.50;2.70;;;;;;;;;;5038198;28;20119;-40
2023/03/23 07:58:25;;;;;;;4.80;2.75;;;;;;;;;;5033131;28;20096;-40
2023/03/23 08:00:52;;;;;;;5.15;2.50;;;;;;;;;;5031836;28;20069;-39
2023/03/23 08:03:18;;;;;;;5.68;3.05;;;;;;;;;;5035199;28;20506;-39
2023/03/23 08:05:43;;;;;;;6.20;3.13;;;;;;;;;;5029785;28;20041;-39
2023/03/23 08:08:09;;;;;;;7.03;2.92;;;;;;;;;;5034749;28;20035;-39
2023/03/23 08:10:35;;;;;;;7.45;3.45;;;;;;;;;;5030568;28;20038;-39
2023/03/23 08:13:01;;;;;;;12.45;2.90;;;;;;;;;;5030263;28;20033;-39
2023/03/23 08:15:27;;;;;;;5.25;2.95;;;;;;;;;;5029944;28;20048;-38
2023/03/23 08:17:52;;;;;;;5.80;3.63;;;;;;;;;;5033735;28;20049;-39
2023/03/23 08:20:18;;;;;;;5.88;3.28;;;;;;;;;;5033855;28;20047;-39
2023/03/23 08:22:52;;;;;;;8.60;2.80;;;;;;;;;;5033918;28;20752;-39
2023/03/23 08:25:18;;;;;;;5.60;2.75;;;;;;;;;;5027674;28;20136;-38
2023/03/23 08:27:44;;;;;;;5.25;2.90;;;;;;;;;;5028777;28;20017;-39
2023/03/23 08:30:15;;;;;;;6.68;3.33;;;;;;;;;;5034786;28;20071;-38
2023/03/23 08:32:41;;;;;;;4.40;2.80;;;;;;;;;;5027725;28;20033;-39
2023/03/23 08:35:09;;;;;;;6.43;3.13;;;;;;;;;;5030781;28;20126;-38
2023/03/23 08:37:35;;;;;;;7.30;3.22;;;;;;;;;;5033603;28;20067;-39
2023/03/23 08:40:11;;;;;;;7.47;3.30;;;;;;;;;;5025178;28;20041;-38
2023/03/23 08:42:42;;;;;;;7.18;3.28;;;;;;;;;;5031360;28;20507;-38
2023/03/23 08:45:11;;;;;;;3.40;3.00;;;;;;;;;;5032139;28;20034;-38
2023/03/23 08:47:37;;;;;;;9.23;3.65;;;;;;;;;;5030367;28;20029;-38
2023/03/23 08:50:05;;;;;;;5.28;3.33;;;;;;;;;;5028456;28;20034;-38
2023/03/23 08:52:30;;;;;;;8.75;3.60;;;;;;;;;;5030627;28;20033;-39
2023/03/23 08:54:56;;;;;;;10.93;4.32;;;;;;;;;;5029974;28;20506;-38
2023/03/23 08:57:23;;;;;;;7.90;4.10;;;;;;;;;;5034514;28;20041;-38
2023/03/23 08:59:48;;;;;;;11.90;3.25;;;;;;;;;;5037784;28;20029;-38
2023/03/23 09:02:14;;;;;;;8.60;2.80;;;;;;;;;;5033334;28;20047;-38
2023/03/23 09:04:42;;;;;;;8.07;3.20;;;;;;;;;;5037817;28;20021;-41
2023/03/23 09:07:10;;;;;;;6.05;2.65;;;;;;;;;;5033349;28;20029;-41
2023/03/23 09:09:37;;;;;;;8.15;2.58;;;;;;;;;;5025148;28;20034;-38
2023/03/23 09:12:02;;;;;;;10.32;2.53;;;;;;;;;;5014209;28;20049;-39
2023/03/23 09:14:28;;;;;;;6.88;2.58;;;;;;;;;;5031175;28;20038;-38
2023/03/23 09:16:53;;;;;;;7.00;2.65;;;;;;;;;;5038417;28;20033;-39
2023/03/23 09:19:20;;;;;;;4.65;2.50;;;;;;;;;;5033822;28;20879;-38
2023/03/23 09:21:45;;;;;;;7.53;2.78;;;;;;;;;;5038062;28;20718;-39
2023/03/23 09:24:11;;;;;;;9.98;2.97;;;;;;;;;;5025589;28;20149;-38
2023/03/23 09:26:36;;;;;;;6.05;2.95;;;;;;;;;;5039253;28;20033;-39
2023/03/23 09:29:03;;;;;;;5.85;3.08;;;;;;;;;;5037487;28;20033;-39
2023/03/23 09:31:28;;;;;;;6.50;2.72;;;;;;;;;;5030682;28;20060;-38
2023/03/23 09:33:56;;;;;;;8.95;3.55;;;;;;;;;;5022349;28;20030;-38
2023/03/23 09:36:22;;;;;;;6.32;3.20;;;;;;;;;;5026837;28;20417;-38
2023/03/23 09:38:48;;;;;;;5.47;3.05;;;;;;;;;;5035614;28;20129;-39
2023/03/23 09:41:40;;;;;;;3.90;2.60;;;;;;;;;;5033362;28;20438;-44
2023/03/23 09:44:17;;;;;;;13.23;3.35;;;;;;;;;;4993887;28;20041;-38
2023/03/23 09:46:54;;;;;;;11.70;3.08;;;;;;;;;;4992072;28;20530;-39
2023/03/23 09:49:28;;;;;;;7.18;3.10;;;;;;;;;;4992095;28;20049;-39
2023/03/23 09:52:03;;;;;;;6.70;3.10;;;;;;;;;;4995483;28;20065;-39
2023/03/23 09:54:40;;;;;;;8.65;3.33;;;;;;;;;;4996847;28;20046;-39
2023/03/23 09:57:30;;;;;;;4.03;3.30;;;;;;;;;;4986819;28;20415;-39
2023/03/23 10:00:15;;;;;;;8.32;3.17;;;;;;;;;;4983485;28;20059;-38
2023/03/23 10:02:55;;;;;;;6.50;3.28;;;;;;;;;;4986573;28;20408;-39
2023/03/23 10:05:35;;;;;;;4.07;2.80;;;;;;;;;;4998135;28;20061;-40
2023/03/23 10:08:05;;;;;;;5.40;2.85;;;;;;;;;;4995507;28;20038;-39
2023/03/23 10:10:47;;;;;;;6.30;3.00;;;;;;;;;;4992991;28;20041;-43
2023/03/23 10:13:25;;;;;;;5.57;2.80;;;;;;;;;;4991218;28;20049;-40
2023/03/23 10:15:51;;;;;;;4.18;2.53;;;;;;;;;;4991204;28;20050;-39
2023/03/23 10:18:26;;;;;;;5.57;2.72;;;;;;;;;;4994007;28;20502;-40
2023/03/23 10:21:00;;;;;;;6.47;2.30;;;;;;;;;;5007584;28;20515;-39
2023/03/23 10:23:58;;;;;;;10.73;3.35;;;;;;;;;;5028458;28;20029;-39
2023/03/23 10:26:41;;;;;;;6.63;2.60;;;;;;;;;;5036013;28;20104;-40
2023/03/23 10:29:13;;;;;;;4.47;2.42;;;;;;;;;;5032846;28;20033;-45
2023/03/23 10:31:45;;;;;;;3.22;2.15;;;;;;;;;;5030786;28;20509;-39
2023/03/23 10:34:21;;;;;;;5.25;2.60;;;;;;;;;;5028527;28;20087;-40
2023/03/23 10:37:11;;;;;;;4.18;2.45;;;;;;;;;;5034106;28;20585;-44
2023/03/23 10:39:56;;;;;;;4.85;2.50;;;;;;;;;;5033023;28;20033;-39
2023/03/23 10:42:24;;;;;;;4.53;1.90;;;;;;;;;;5034029;28;20045;-39
2023/03/23 10:44:50;;;;;;;6.70;2.50;;;;;;;;;;5034305;28;20457;-42
2023/03/23 10:47:17;;;;;;;6.05;2.72;;;;;;;;;;5034542;28;20036;-39
2023/03/23 10:49:50;;;;;;;2.97;1.92;;;;;;;;;;5038599;28;20044;-39
2023/03/23 10:52:55;;;;;;;6.57;2.13;;;;;;;;;;5034708;28;20053;-39
2023/03/23 10:55:23;;;;;;;15.73;2.15;;;;;;;;;;5013413;28;20046;-41
2023/03/23 10:58:03;;;;;;;4.50;2.08;;;;;;;;;;5012557;28;20026;-39
2023/03/23 11:00:30;;;;;;;2.28;1.90;;;;;;;;;;5012287;28;20053;-39
2023/03/23 11:03:06;;;;;;;7.70;1.92;;;;;;;;;;5008469;28;20490;-39
2023/03/23 11:05:59;;;;;;;4.22;1.95;;;;;;;;;;5008515;28;20129;-43
2023/03/23 11:08:31;;;;;;;6.55;2.00;;;;;;;;;;5011014;28;20045;-38
2023/03/23 11:11:09;;;;;;;5.05;2.20;;;;;;;;;;5013811;28;20041;-39
2023/03/23 11:13:40;;;;;;;2.53;1.30;;;;;;;;;;5002761;28;20076;-39
2023/03/23 11:16:08;;;;;;;2.85;1.67;;;;;;;;;;5007175;28;20038;-39
2023/03/23 11:18:44;;;;;;;5.07;1.63;;;;;;;;;;5012809;28;20049;-38
2023/03/23 11:21:14;;;;;;;4.32;1.60;;;;;;;;;;5012051;28;20076;-38
2023/03/23 11:23:42;;;;;;;2.95;1.52;;;;;;;;;;5011815;28;20132;-42
2023/03/23 11:26:16;;;;;;;3.75;1.45;;;;;;;;;;5022415;28;20038;-39
2023/03/23 11:28:45;;;;;;;3.88;1.70;;;;;;;;;;5036277;28;20033;-39
2023/03/23 11:31:11;;;;;;;3.38;1.40;;;;;;;;;;5026107;28;20041;-41
2023/03/23 11:33:50;;;;;;;6.95;1.30;;;;;;;;;;5036020;28;20075;-39
2023/03/23 11:36:16;;;;;;;3.28;1.58;;;;;;;;;;5030217;28;20103;-39
2023/03/23 11:38:44;;;;;;;4.13;1.58;;;;;;;;;;5030947;28;20026;-39
2023/03/23 11:41:11;;;;;;;4.25;1.35;;;;;;;;;;5032840;28;20095;-39
2023/03/23 11:43:40;;;;;;;2.95;1.40;;;;;;;;;;5033786;28;20033;-39
2023/03/23 11:46:29;;;;;;;1.85;1.50;;;;;;;;;;5028734;28;20044;-40
2023/03/23 11:49:02;;;;;;;4.68;1.95;;;;;;;;;;5030503;28;20036;-39
2023/03/23 11:51:39;;;;;;;4.65;1.98;;;;;;;;;;5028903;28;20111;-39
2023/03/23 11:54:04;;;;;;;5.30;2.00;;;;;;;;;;5026891;28;20053;-39
2023/03/23 11:56:34;;;;;;;4.93;2.15;;;;;;;;;;5021087;28;20072;-39
2023/03/23 11:59:02;;;;;;;5.82;2.10;;;;;;;;;;5021969;28;20539;-39
2023/03/23 12:02:05;;;;;;;5.55;1.83;;;;;;;;;;5026517;28;20151;-39
2023/03/23 12:05:10;;;;;;;6.85;1.50;;;;;;;;;;5029842;28;20026;-42
2023/03/23 12:07:47;;;;;;;6.88;1.58;;;;;;;;;;4994350;28;20099;-39
2023/03/23 12:10:22;;;;;;;3.38;1.30;;;;;;;;;;4994607;28;20045;-42
2023/03/23 12:13:07;;;;;;;2.90;1.60;;;;;;;;;;4991823;28;20032;-39
2023/03/23 12:15:43;;;;;;;3.53;1.25;;;;;;;;;;4986897;28;20129;-41
2023/03/23 12:18:28;;;;;;;3.88;1.40;;;;;;;;;;4988003;28;20042;-39
2023/03/23 12:21:27;;;;;;;3.05;1.50;;;;;;;;;;4986390;28;20081;-39
2023/03/23 12:23:56;;;;;;;3.38;1.70;;;;;;;;;;4991092;28;20066;-39
2023/03/23 12:26:26;;;;;;;5.70;1.83;;;;;;;;;;4996183;28;20561;-39
2023/03/23 12:29:34;;;;;;;3.40;1.60;;;;;;;;;;4997443;28;20050;-39
2023/03/23 12:32:30;;;;;;;3.50;1.45;;;;;;;;;;4975725;28;20101;-39
2023/03/23 12:35:09;;;;;;;5.43;1.40;;;;;;;;;;4979881;28;20167;-40
2023/03/23 12:37:55;;;;;;;2.10;1.30;;;;;;;;;;4977456;28;20054;-40
2023/03/23 12:40:44;;;;;;;2.40;1.55;;;;;;;;;;4974002;28;20126;-50
2023/03/23 12:43:35;;;;;;;3.33;1.83;;;;;;;;;;4990090;28;20038;-39
2023/03/23 12:46:29;;;;;;;3.35;1.60;;;;;;;;;;5009769;28;20038;-39
2023/03/23 12:49:06;;;;;;;2.72;1.60;;;;;;;;;;5009474;28;20088;-39
2023/03/23 12:51:50;;;;;;;3.00;1.60;;;;;;;;;;5006509;28;20038;-41
2023/03/23 12:54:39;;;;;;;2.70;1.30;;;;;;;;;;5012178;28;20065;-39
2023/03/23 12:57:04;;;;;;;3.42;1.85;;;;;;;;;;5014762;28;20387;-39
2023/03/23 12:59:40;;;;;;;4.25;2.10;;;;;;;;;;5012952;28;20046;-39
2023/03/23 13:02:28;;;;;;;4.82;1.75;;;;;;;;;;5013983;28;20038;-39
2023/03/23 13:05:08;;;;;;;2.58;1.70;;;;;;;;;;5017178;28;20374;-38
2023/03/23 13:07:45;;;;;;;4.05;1.92;;;;;;;;;;5013741;28;20516;-38
2023/03/23 13:10:35;;;;;;;6.15;1.70;;;;;;;;;;5029688;28;20041;-38
2023/03/23 13:13:01;;;;;;;3.45;1.95;;;;;;;;;;5032835;28;20029;-39
2023/03/23 13:15:43;;;;;;;3.28;1.50;;;;;;;;;;5032748;28;20332;-39
2023/03/23 13:18:16;;;;;;;5.10;1.50;;;;;;;;;;5033284;28;20129;-37
2023/03/23 13:21:23;;;;;;;5.18;1.75;;;;;;;;;;5050178;28;20121;-39
2023/03/23 13:23:53;;;;;;;2.05;1.33;;;;;;;;;;4976939;28;20075;-39
2023/03/23 13:26:21;;;;;;;3.63;1.27;;;;;;;;;;4980280;28;20074;-39
2023/03/23 13:29:08;;;;;;;6.03;1.90;;;;;;;;;;4977068;28;20039;-39
2023/03/23 13:31:36;;;;;;;5.57;1.75;;;;;;;;;;4975689;28;20054;-38
2023/03/23 13:34:25;;;;;;;8.57;2.30;;;;;;;;;;4973978;28;20096;-37
2023/03/23 13:37:05;;;;;;;3.22;1.35;;;;;;;;;;4974084;28;20046;-38
2023/03/23 13:40:12;;;;;;;4.00;1.20;;;;;;;;;;4972379;28;20484;-36
2023/03/23 13:42:49;;;;;;;2.63;1.40;;;;;;;;;;4973870;28;20105;-38
2023/03/23 13:45:17;;;;;;;6.00;1.70;;;;;;;;;;4974524;28;20061;-38
2023/03/23 13:47:44;;;;;;;5.70;1.63;;;;;;;;;;4976879;28;20533;-39
2023/03/23 13:50:24;;;;;;;5.28;1.50;;;;;;;;;;4972886;28;20034;-38
2023/03/23 13:52:55;;;;;;;4.40;1.52;;;;;;;;;;4973285;28;20063;-39
2023/03/23 13:55:35;;;;;;;2.33;1.50;;;;;;;;;;5022398;28;20103;-38
2023/03/23 13:58:05;;;;;;;2.08;1.50;;;;;;;;;;5032278;28;20128;-38
2023/03/23 14:00:31;;;;;;;3.17;1.65;;;;;;;;;;5037778;28;20507;-37
2023/03/23 14:03:13;;;;;;;4.93;1.20;;;;;;;;;;5035548;28;20064;-39
2023/03/23 14:05:44;;;;;;;3.40;1.60;;;;;;;;;;5037588;28;20071;-39
2023/03/23 14:08:09;;;;;;;5.18;1.85;;;;;;;;;;5033189;28;20438;-39
2023/03/23 14:10:42;;;;;;;5.85;1.73;;;;;;;;;;5028279;28;20695;-38
2023/03/23 14:13:20;;;;;;;3.22;1.63;;;;;;;;;;5032782;28;20375;-44
2023/03/23 14:16:04;;;;;;;7.45;1.85;;;;;;;;;;5036374;28;20053;-39
2023/03/23 14:18:35;;;;;;;5.45;2.25;;;;;;;;;;5034425;28;20041;-38
2023/03/23 14:21:01;;;;;;;5.35;1.77;;;;;;;;;;5034443;28;20128;-38
2023/03/23 14:23:26;;;;;;;8.85;2.03;;;;;;;;;;5035505;28;20113;-38
2023/03/23 14:26:04;;;;;;;6.15;1.77;;;;;;;;;;5034256;28;20402;-41
2023/03/23 14:28:32;;;;;;;3.28;1.50;;;;;;;;;;5033112;28;20386;-38
2023/03/23 14:30:58;;;;;;;2.70;1.45;;;;;;;;;;5035559;28;20057;-38
2023/03/23 14:33:26;;;;;;;4.95;1.80;;;;;;;;;;5032468;28;20104;-42
2023/03/23 14:35:52;;;;;;;5.53;2.03;;;;;;;;;;5035439;28;20064;-41
2023/03/23 14:38:28;;;;;;;2.50;1.50;;;;;;;;;;5034474;28;20025;-39
2023/03/23 14:40:59;;;;;;;5.05;2.20;;;;;;;;;;5028485;28;20580;-39
2023/03/23 14:43:25;;;;;;;6.50;2.10;;;;;;;;;;5035148;28;20040;-38
2023/03/23 14:45:54;;;;;;;3.58;1.70;;;;;;;;;;5035971;28;20060;-43
2023/03/23 14:48:21;;;;;;;6.18;1.88;;;;;;;;;;5029300;28;20040;-38
2023/03/23 14:50:51;;;;;;;4.05;1.77;;;;;;;;;;5035438;28;20128;-40
2023/03/23 14:53:33;;;;;;;6.47;1.67;;;;;;;;;;5031917;28;20056;-39
2023/03/23 14:56:04;;;;;;;4.65;1.60;;;;;;;;;;5039430;28;20118;-39
2023/03/23 14:58:29;;;;;;;5.97;1.75;;;;;;;;;;5019736;28;20033;-38
2023/03/23 15:01:07;;;;;;;5.35;1.42;;;;;;;;;;5028666;28;20048;-38
2023/03/23 15:03:43;;;;;;;4.32;1.63;;;;;;;;;;5019017;28;21007;-38
2023/03/23 15:06:20;;;;;;;7.05;1.83;;;;;;;;;;5022547;28;20041;-39